Jackpot

Texas Poker Multi Jackpot System

Kini Telah hadir Jackpot SUPER ROYAL FLUSH

Kini Telah hadir Jackpot 2000 (khusus table VIP keatas).

Ikutilah global jackpot yang tersedia di system kami, dengan system jackpot terbaru dan pertama di indonesia, anda dapat membeli jackpot dengan harga 100 rupiah saja dan menangkan hadiahnya hingga puluhan juta rupiah.

Jackpot bukanlah suatu keharusan untuk dibeli, namun kami memberikan suatu fitur tambahan untuk member tercinta dari www.pokerqiu.com.

Terdapat tiga pilihan harga jackpot yang bisa anda beli yaitu :100,500,1000 dan 2000(khusus table VIP Keatas) rupiah.

Hadiah dari Multi jackpot system www.pokerqiu.com

  1. full house x 10 harga jackpot yang anda beli.
      (contoh:anda membeli 1000 maka:1000 X10 = 10.000)
  2. four of kind x 250 harga jackpot yang anda beli
      (contoh:anda membeli 1000 maka:1000 X250 = 250.000)
  3. Straight flush x 1200
      (contoh:anda membeli 1000 maka:1000 X1200 = 1.200.000)
  4. Royal flush x 10000 harga jackpot yang anda beli
      (contoh:anda membeli 1000 maka:1000 X10000 = 10.000.000)
  5. SUPER ROYAL FLUSH x 30000 harga jackpot yang anda beli
      (contoh:anda membeli 1000 maka:1000 X30000 = 30.000.000)

Kondisi kartu

  1. full house adalah kondisi kartu dimana kartu anda dan kartu tengah dengan total 7 kartu bisa mendapatkan nilai 5 kartu dengan kombinasi 1 tris(three of kind) dan 1 pair, contoh 3 kartu 10 dan 2 kartu 5
  2. Four of kind adalah kondisi kartu dimana kartu anda dan kartu tengah dengan total 7 kartu bisa mendapatkan nilai 5 kartu dengan kombinasi 4 kartu yang sama jumlah dan 1 kartu apapun juga contoh anda mendapatkan 4 buah kartu angka 3 dan 1 kartu apapun.
  3. Staright flush adalah kondisi kartu dimana kartu anda dan kartu tengah dengan total 7 kartu bisa mendapatkan nilai 5 kartu dengan kombinasi seri / staright dengan kembang yang sama contoh : urutan kartu dari angka 5, 6, 7, 8 , 9 10 dengan kembang yg sama misalnya as hati
  4. Royal flush adalah kondisi kartu dimana kartu anda dan kartu tengah dengan total 7 kartu bisa mendapatkan nilai 5 kartu dengan kombinasi seri / staright dengan kembang yang sama tetapi kartu tersebut haruslah dimulai dari 10. contoh 10, Queen, Jack, King dan aces dengan kembang yang sama
  5. Super Royal flush adalah kondisi kartu dimana Kedua kartu anda digabung dengan 3 kartu pertama meja haruslah royal flush. contoh kartu anda 10,Queen kembang sama dan 3 kartu pertama meja adalah Jack, King dan aces dengan kembang yang sama

Demikian adalah penjelasan dari Multi Jackpot www.pokerqiu.com terima kasih dan selamat bermain salam hoki dari kami

Texas Poker Jackpot Winner

TOP SUPER ROYAL FLUSH
No.TanggalNamaPriceWin
118/11 14:42INDRY04Super Royal flush6,000,000
218/11 07:16R_BOSSuper Royal flush3,000,000
318/11 01:56CLICKTOPSuper Royal flush60,000,000
417/11 19:22A8B9403ESuper Royal flush15,000,000
517/11 17:37D3W4M0NY3TSuper Royal flush15,000,000
TOP ROYAL FLUSH
No.TanggalNamaPriceWin
118/11 19:10CIE90Royal flush2,000,000
218/11 19:02OVERSIZ33Royal flush5,000,000
318/11 19:01MILEY123Royal flush1,000,000
418/11 18:44K1D1R212Royal flush10,000,000
518/11 18:42CHUOXRoyal flush20,000,000
TOP STRAIGHT FLUSH
No.TanggalNamaPriceWin
118/11 19:08MINTA7Straight Flush120,000
218/11 19:08BACK1820Straight Flush1,200,000
318/11 19:06VQQZVJ8KYSStraight Flush1,200,000
418/11 19:04RAHAI003Straight Flush240,000
518/11 19:01INAQ02Straight Flush2,400,000
LATEST JACKPOT
No.TanggalNamaPriceWin
118/11 19:11G4584UGO2GFour Of A Kind50,000
218/11 19:11TEMPIX66Full House1,000
318/11 19:11LANTURIFull House5,000
418/11 19:11DEW4KINDFull House10,000
518/11 19:11DQY1992Full House5,000
618/11 19:11ACANTIKAFour Of A Kind250,000
718/11 19:11B3J0D4T4NGFull House1,000
818/11 19:11BEHEL_2010Full House2,000
918/11 19:11SAMIOK87Full House5,000
1018/11 19:11BOS100381Full House5,000
1118/11 19:11CB4V5SEI3PFull House2,000
1218/11 19:11II7PIN8SXVFull House5,000
1318/11 19:11E5C8E99FFull House5,000
1418/11 19:11AYANGBEB55Full House2,000
1518/11 19:11D6BBBAA1Full House2,000
1618/11 19:11F24DDEB5Full House1,000
1718/11 19:11ADHITBOFull House10,000
1818/11 19:11DREGAGA342Full House5,000
1918/11 19:11AL3UWFull House10,000
2018/11 19:11GASTRUS00Full House2,000
2118/11 19:11JCALUNGFull House10,000
2218/11 19:11WH1980Full House1,000
2318/11 19:11R4MPAS05Full House1,000
2418/11 19:11ALLEANKAFull House10,000
2518/11 19:11D0Z3N99Full House2,000
2618/11 19:11LEAK5Full House20,000
2718/11 19:11YELI192Full House2,000
2818/11 19:11CASHYANK1Full House2,000
2918/11 19:11OPY4VYXXAVFull House2,000
3018/11 19:11LUKMANNULFull House2,000
3118/11 19:11FITRIANIPFour Of A Kind250,000
3218/11 19:11MIAYAM55Full House2,000
3318/11 19:11BRYAN_09Full House5,000
3418/11 19:11BUROK86Full House1,000
3518/11 19:11UDELUNYUFull House2,000
3618/11 19:11PAIFAIZALFull House5,000
3718/11 19:11NDOTT77Full House10,000
3818/11 19:11V3SVWL6I9VFull House2,000
3918/11 19:11RISYA94Full House1,000
4018/11 19:11BCH77Full House5,000
4118/11 19:11ARRIA_16Full House5,000
4218/11 19:11AAAABIAA1Full House1,000
4318/11 19:11RARA8507Full House1,000
4418/11 19:11WLSASIH999Full House1,000
4518/11 19:11TENJOLAYFull House2,000
4618/11 19:11RAWIN999Full House2,000
4718/11 19:11BARTEN10Full House1,000
4818/11 19:11AZMIAAFull House5,000
4918/11 19:11DWBTIKRA5Full House1,000
5018/11 19:11KHODIJAH19Full House1,000

Domino Multi Jackpot System

Ikutilah global jackpot yang tersedia di system kami, dengan system jackpot terbaru dan pertama di indonesia, anda dapat membeli jackpot dengan harga 100 rupiah saja dan menangkan hadiahnya hingga puluhan juta rupiah.

Jackpot bukanlah suatu keharusan untuk dibeli, namun kami memberikan suatu fitur tambahan untuk member tercinta dari www.pokerqiu.com.

Terdapat tiga pilihan harga jackpot yang bisa anda beli yaitu :100,500 dan 1000 rupiah.

Hadiah dari Multi jackpot system www.pokerqiu.com

  1. Murni Kecil x 50 harga jackpot yang anda beli.
      (contoh:anda membeli 1000 maka:1000 X 50 = 50.000)
  2. Murni Besar x 50 harga jackpot yang anda beli
      (contoh:anda membeli 1000 maka:1000 X 50 = 50.000)
  3. BALAK x 100 harga jackpot yang anda beli
      (contoh:anda membeli 1000 maka:1000 X 100 = 100.000)
  4. ENAM DEWA x 6666 harga jackpot yang anda beli
      (contoh:anda membeli 1000 maka:1000 X 6666 = 6.666.000)

Demikian adalah penjelasan dari Multi Jackpot www.pokerqiu.com terima kasih dan selamat bermain salam hoki dari kami

Domino Jackpot Winner

TOP ENAM DEWA
No.TanggalNamaPriceWin
118/11 16:57DE987B07murni enam6,666,000
218/11 15:22TERMIN3murni enam6,666,000
318/11 15:03THEKING72murni enam3,333,000
418/11 12:38SAFA2102murni enam6,666,000
518/11 08:16SONNY2929murni enam3,333,000
TOP BALAK
No.TanggalNamaPriceWin
118/11 19:11JACKPOT09balak50,000
218/11 19:10HOKYKOE99balak50,000
318/11 19:07DEWABF7balak10,000
418/11 19:01ASELOLE9HQbalak100,000
518/11 18:59HAYAMJAGObalak50,000
LATEST JACKPOT
No.TanggalNamaPriceWin
118/11 19:11JACKPOT09balak50,000
218/11 19:10IDNGMALL45murni besar50,000
318/11 19:10HOKYKOE99balak50,000
418/11 19:09NADIR91murni kecil25,000
518/11 19:08BUJANGGMmurni kecil50,000
618/11 19:08MAPIHAMS38murni kecil5,000
718/11 19:07DEEWAA9lucky99700,000
818/11 19:07DEWABF7balak10,000
918/11 19:05AGZ777murni kecil50,000
1018/11 19:04LAHUNGAlucky9950,000
1118/11 19:03Q6666Qmurni besar50,000
1218/11 19:01TJFTmurni kecil5,000
1318/11 19:01ASELOLE9HQbalak100,000
1418/11 19:01STJ99murni kecil50,000
1518/11 19:01A20A5781murni besar5,000
1618/11 18:59LINAImurni kecil50,000
1718/11 18:59HAYAMJAGObalak50,000
1818/11 18:59AYEE105lucky9910,000
1918/11 18:58OLIV46murni besar25,000
2018/11 18:57BANGTONGAmurni besar25,000
2118/11 18:57RESNUDV9murni besar25,000
2218/11 18:55AGUS7787murni besar50,000
2318/11 18:55XVVIVZAFRAmurni besar50,000
2418/11 18:55REGASAmurni kecil5,000
2518/11 18:55FETZUmurni besar50,000
2618/11 18:55SOLVENmurni kecil25,000
2718/11 18:55CANHOmurni kecil25,000
2818/11 18:54BANGTONGAmurni besar25,000
2918/11 18:54TJFTmurni besar5,000
3018/11 18:54FIKRY_123murni kecil50,000
3118/11 18:54MAS_RAFFYmurni besar25,000
3218/11 18:52SAHIDKHADAmurni kecil5,000
3318/11 18:52REVO70murni besar5,000
3418/11 18:51T4DLUCKYQQmurni besar5,000
3518/11 18:50ROB99balak100,000
3618/11 18:50BAGINDA000murni kecil50,000
3718/11 18:49HAJIAJImurni besar25,000
3818/11 18:49REVI24murni besar50,000
3918/11 18:48P4UL18murni kecil50,000
4018/11 18:48ARESRESElucky9925,000
4118/11 18:46SATAN77murni kecil5,000
4218/11 18:46G3EN_T4balak50,000
4318/11 18:46ISQOBARmurni besar25,000
4418/11 18:43PIAN86X9murni kecil50,000
4518/11 18:43CWB6PED3RSmurni kecil25,000
4618/11 18:43KPN72balak100,000
4718/11 18:43SAPI112murni kecil5,000
4818/11 18:43SASYAHmurni kecil50,000
4918/11 18:43YMJB12ZTBLmurni besar25,000
5018/11 18:42BAKSOCNmurni besar25,000

Ceme Multi Jackpot System

Jackpot dilihat dari gabungan kartu pemain dengan kartu bandar. Bandar harus membeli jackpot sebanyak jumlah player yang sedang duduk. Sebagai contoh bila terdapat 3 pemain duduk bermain, dan bandar memutuskan untuk membeli jackpot Rp 1.000, maka pada periode tersebut bandar akan membeli jackpot sebanyak 3xRp1.000 = Rp3.000.

Jackpot bukanlah suatu keharusan untuk dibeli, namun kami memberikan suatu fitur tambahan untuk member tercinta dari www.pokerqiu.com.

Terdapat tiga pilihan harga jackpot yang bisa anda beli yaitu :100,500 dan 1000 rupiah.

Hadiah dari Multi jackpot system www.pokerqiu.com

  1. Murni Kecil x 50 harga jackpot yang anda beli.
      (contoh:anda membeli 1000 maka:1000 X 50 = 50.000)
  2. Murni Besar x 50 harga jackpot yang anda beli
      (contoh:anda membeli 1000 maka:1000 X 50 = 50.000)
  3. BALAK x 200 harga jackpot yang anda beli
      (contoh:anda membeli 1000 maka:1000 X 200 = 200.000)
  4. ENAM DEWA x 6666 harga jackpot yang anda beli
      (contoh:anda membeli 1000 maka:1000 X 6666 = 6.666.000)

Demikian adalah penjelasan dari Multi Jackpot www.pokerqiu.com terima kasih dan selamat bermain salam hoki dari kami

Ceme Jackpot Winner

TOP ENAM DEWA
No.TanggalNamaPriceWin
118/11 18:30LUCCAASSmurni enam6,666,000
218/11 18:24HASHUS123murni enam6,666,000
318/11 18:15UDAGCURUGmurni enam666,600
418/11 18:06JASBYmurni enam666,600
518/11 17:59DENSUS97murni enam6,666,000
TOP BALAK
No.TanggalNamaPriceWin
118/11 19:11RISMAF12balak20,000
218/11 19:11D3NNY505balak200,000
318/11 19:10AGUSMEMETbalak20,000
418/11 19:10DUITCASbalak200,000
518/11 19:09ARTEMIS88balak200,000
LATEST JACKPOT
No.TanggalNamaPriceWin
118/11 19:11BOOBI99murni besar25,000
218/11 19:11TORIQ378murni kecil50,000
318/11 19:11A999916murni kecil50,000
418/11 19:11DEDYPLN34murni kecil50,000
518/11 19:11SUNCIANGmurni besar50,000
618/11 19:11N3W7G05F5Hmurni kecil50,000
718/11 19:11GH0Smurni besar50,000
818/11 19:11YADIKOINmurni besar25,000
918/11 19:11GH0Smurni besar50,000
1018/11 19:11NEMO94murni besar25,000
1118/11 19:11ARTEMIS88murni kecil50,000
1218/11 19:11ARTEMIS88murni kecil50,000
1318/11 19:11JACKLACKYYmurni kecil25,000
1418/11 19:11PRATAMAA72murni besar50,000
1518/11 19:11SLOWBEUHmurni kecil25,000
1618/11 19:11ONAM3murni kecil5,000
1718/11 19:11KUETANmurni kecil5,000
1818/11 19:11RISMAF12balak20,000
1918/11 19:11D3NNY505balak200,000
2018/11 19:11AGUSMEMETmurni kecil5,000
2118/11 19:11E505murni kecil5,000
2218/11 19:10NYOT777murni kecil50,000
2318/11 19:10KB4N0F3NVTmurni besar50,000
2418/11 19:10GAYAM28murni besar5,000
2518/11 19:10ROXZ07murni kecil50,000
2618/11 19:10KABELITmurni kecil50,000
2718/11 19:10AGUSMEMETbalak20,000
2818/11 19:10DUITCASbalak200,000
2918/11 19:10MUNIF76murni besar50,000
3018/11 19:10FOLAFOLAmurni kecil50,000
3118/11 19:10DWBTAKDO70murni kecil50,000
3218/11 19:10CEPOK205murni besar50,000
3318/11 19:10JONO02murni besar25,000
3418/11 19:09SIRENG25murni besar50,000
3518/11 19:09HENY227murni besar50,000
3618/11 19:09ARTEMIS88balak200,000
3718/11 19:09JOLDYSRAmurni besar50,000
3818/11 19:09VIOO807murni kecil50,000
3918/11 19:09KOEPLE03murni kecil50,000
4018/11 19:09IMS303murni kecil50,000
4118/11 19:09SIRENG25murni besar50,000
4218/11 19:09SAMASTAmurni besar50,000
4318/11 19:09GTJAJTmurni kecil5,000
4418/11 19:09ANISAH445murni kecil5,000
4518/11 19:09LB884705murni besar5,000
4618/11 19:09ROXZ07balak200,000
4718/11 19:09JONN378balak20,000
4818/11 19:09NANTA423murni kecil50,000
4918/11 19:08KUROBALAP2murni kecil5,000
5018/11 19:08BAONGSmurni kecil50,000